Manchester, Vermont
Current Conditions -  °F | °C
As of 3:54 AM on Saturday 20 Dec 2014 (Local Time) from KDDH Reporting Station
Clear Clear  
Wind Chill: 18°   Ceiling: Unl
Heat Index: 18°   Visibility: 10mi
Dew Point: 14°   Wind: 3mph
Humidity: 84%   Direction: 240°WSW
Pressure: 30.19"   Gusts: NA
Location:  43.16°N, 73.07°W
Report Text: KDDH 200854Z AUTO 24003KT 10SM CLR M08/M10 A3019 RMK AO2 SLP234 T10781100 50004
Loading
Personal Weather Stations






























Interactive Weather Map New forecast layout! Learn more

10-Day Weather Forecast

Advertisements
Track Severe Weather on mobile